sensor_id;sensor_type;location;lat;lon;timestamp;temperature;humidity
18335;DHT22;9293;49.524;10.964;2022-08-21T00:01:52;17.40;99.90
18335;DHT22;9293;49.524;10.964;2022-08-21T00:04:22;17.40;99.90
18335;DHT22;9293;49.524;10.964;2022-08-21T00:06:56;17.40;99.90
18335;DHT22;9293;49.524;10.964;2022-08-21T00:09:24;17.50;99.90
18335;DHT22;9293;49.524;10.964;2022-08-21T00:11:52;17.60;99.90
18335;DHT22;9293;49.524;10.964;2022-08-21T00:14:20;17.50;99.90
18335;DHT22;9293;49.524;10.964;2022-08-21T00:16:48;17.50;99.90
18335;DHT22;9293;49.524;10.964;2022-08-21T00:19:19;17.50;99.90
18335;DHT22;9293;49.524;10.964;2022-08-21T00:21:47;17.50;99.90
18335;DHT22;9293;49.524;10.964;2022-08-21T00:24:15;17.50;99.90
18335;DHT22;9293;49.524;10.964;2022-08-21T00:26:43;17.60;99.90
18335;DHT22;9293;49.524;10.964;2022-08-21T00:29:12;17.60;99.90
18335;DHT22;9293;49.524;10.964;2022-08-21T00:31:41;17.60;99.90
18335;DHT22;9293;49.524;10.964;2022-08-21T00:34:10;17.60;99.90
18335;DHT22;9293;49.524;10.964;2022-08-21T00:36:39;17.60;99.90
18335;DHT22;9293;49.524;10.964;2022-08-21T00:39:08;17.60;99.90
18335;DHT22;9293;49.524;10.964;2022-08-21T00:41:38;17.60;99.90
18335;DHT22;9293;49.524;10.964;2022-08-21T00:44:09;17.40;99.90
18335;DHT22;9293;49.524;10.964;2022-08-21T00:46:38;17.40;99.90
18335;DHT22;9293;49.524;10.964;2022-08-21T00:49:06;17.40;99.90
18335;DHT22;9293;49.524;10.964;2022-08-21T00:51:50;17.30;99.90
18335;DHT22;9293;49.524;10.964;2022-08-21T00:54:24;17.30;99.90
18335;DHT22;9293;49.524;10.964;2022-08-21T00:56:57;17.30;99.90
18335;DHT22;9293;49.524;10.964;2022-08-21T00:59:28;17.40;99.90
18335;DHT22;9293;49.524;10.964;2022-08-21T01:01:57;17.40;99.90
18335;DHT22;9293;49.524;10.964;2022-08-21T01:04:26;17.40;99.90
18335;DHT22;9293;49.524;10.964;2022-08-21T01:06:54;17.40;99.90
18335;DHT22;9293;49.524;10.964;2022-08-21T01:09:22;17.40;99.90
18335;DHT22;9293;49.524;10.964;2022-08-21T01:11:51;17.40;99.90
18335;DHT22;9293;49.524;10.964;2022-08-21T01:14:19;17.40;99.90
18335;DHT22;9293;49.524;10.964;2022-08-21T01:16:50;17.40;99.90
18335;DHT22;9293;49.524;10.964;2022-08-21T01:19:20;17.40;99.90
18335;DHT22;9293;49.524;10.964;2022-08-21T01:21:49;17.50;99.90
18335;DHT22;9293;49.524;10.964;2022-08-21T01:24:17;17.50;99.90
18335;DHT22;9293;49.524;10.964;2022-08-21T01:26:46;17.50;99.90
18335;DHT22;9293;49.524;10.964;2022-08-21T01:29:44;17.40;99.90
18335;DHT22;9293;49.524;10.964;2022-08-21T01:32:16;17.30;99.90
18335;DHT22;9293;49.524;10.964;2022-08-21T01:34:46;17.40;99.90
18335;DHT22;9293;49.524;10.964;2022-08-21T01:37:16;17.40;99.90
18335;DHT22;9293;49.524;10.964;2022-08-21T01:39:45;17.50;99.90
18335;DHT22;9293;49.524;10.964;2022-08-21T01:42:14;17.50;99.90
18335;DHT22;9293;49.524;10.964;2022-08-21T01:44:42;17.40;99.90
18335;DHT22;9293;49.524;10.964;2022-08-21T01:47:13;17.40;99.90
18335;DHT22;9293;49.524;10.964;2022-08-21T01:49:44;17.40;99.90
18335;DHT22;9293;49.524;10.964;2022-08-21T01:52:12;17.50;99.90
18335;DHT22;9293;49.524;10.964;2022-08-21T01:54:41;17.40;99.90
18335;DHT22;9293;49.524;10.964;2022-08-21T01:57:11;17.40;99.90
18335;DHT22;9293;49.524;10.964;2022-08-21T01:59:40;17.50;99.90
18335;DHT22;9293;49.524;10.964;2022-08-21T02:02:08;17.50;99.90
18335;DHT22;9293;49.524;10.964;2022-08-21T02:04:37;17.40;99.90
18335;DHT22;9293;49.524;10.964;2022-08-21T02:07:06;17.40;99.90
18335;DHT22;9293;49.524;10.964;2022-08-21T02:09:36;17.40;99.90
18335;DHT22;9293;49.524;10.964;2022-08-21T02:12:06;17.40;99.90
18335;DHT22;9293;49.524;10.964;2022-08-21T02:14:34;17.40;99.90
18335;DHT22;9293;49.524;10.964;2022-08-21T02:17:03;17.40;99.90
18335;DHT22;9293;49.524;10.964;2022-08-21T02:19:37;17.40;99.90
18335;DHT22;9293;49.524;10.964;2022-08-21T02:22:10;17.30;99.90
18335;DHT22;9293;49.524;10.964;2022-08-21T02:24:39;17.20;99.90
18335;DHT22;9293;49.524;10.964;2022-08-21T02:27:22;17.20;99.90
18335;DHT22;9293;49.524;10.964;2022-08-21T02:29:55;17.30;99.90
18335;DHT22;9293;49.524;10.964;2022-08-21T02:32:24;17.30;99.90
18335;DHT22;9293;49.524;10.964;2022-08-21T02:34:53;17.40;99.90
18335;DHT22;9293;49.524;10.964;2022-08-21T02:37:22;17.40;99.90
18335;DHT22;9293;49.524;10.964;2022-08-21T02:39:50;17.30;99.90
18335;DHT22;9293;49.524;10.964;2022-08-21T02:42:19;17.20;99.90
18335;DHT22;9293;49.524;10.964;2022-08-21T02:44:47;17.20;99.90
18335;DHT22;9293;49.524;10.964;2022-08-21T02:47:17;17.20;99.90
18335;DHT22;9293;49.524;10.964;2022-08-21T02:49:45;17.30;99.90
18335;DHT22;9293;49.524;10.964;2022-08-21T02:52:13;17.20;99.90
18335;DHT22;9293;49.524;10.964;2022-08-21T02:54:42;17.30;99.90
18335;DHT22;9293;49.524;10.964;2022-08-21T02:57:10;17.20;99.90
18335;DHT22;9293;49.524;10.964;2022-08-21T02:59:38;17.20;99.90
18335;DHT22;9293;49.524;10.964;2022-08-21T03:02:07;17.20;99.90
18335;DHT22;9293;49.524;10.964;2022-08-21T03:04:35;17.20;99.90
18335;DHT22;9293;49.524;10.964;2022-08-21T03:07:03;17.20;99.90
18335;DHT22;9293;49.524;10.964;2022-08-21T03:09:36;17.20;99.90
18335;DHT22;9293;49.524;10.964;2022-08-21T03:12:21;17.30;99.90
18335;DHT22;9293;49.524;10.964;2022-08-21T03:14:49;17.30;99.90
18335;DHT22;9293;49.524;10.964;2022-08-21T03:17:17;17.30;99.90
18335;DHT22;9293;49.524;10.964;2022-08-21T03:19:56;17.20;99.90
18335;DHT22;9293;49.524;10.964;2022-08-21T03:22:25;17.30;99.90
18335;DHT22;9293;49.524;10.964;2022-08-21T03:24:56;17.20;99.90
18335;DHT22;9293;49.524;10.964;2022-08-21T03:27:26;17.10;99.90
18335;DHT22;9293;49.524;10.964;2022-08-21T03:29:57;17.10;99.90
18335;DHT22;9293;49.524;10.964;2022-08-21T03:32:25;17.10;99.90
18335;DHT22;9293;49.524;10.964;2022-08-21T03:34:53;17.10;99.90
18335;DHT22;9293;49.524;10.964;2022-08-21T03:37:21;17.00;99.90
18335;DHT22;9293;49.524;10.964;2022-08-21T03:39:50;17.00;99.90
18335;DHT22;9293;49.524;10.964;2022-08-21T03:42:19;17.10;99.90
18335;DHT22;9293;49.524;10.964;2022-08-21T03:44:47;17.00;99.90
18335;DHT22;9293;49.524;10.964;2022-08-21T03:47:18;17.00;99.90
18335;DHT22;9293;49.524;10.964;2022-08-21T03:49:46;16.90;99.90
18335;DHT22;9293;49.524;10.964;2022-08-21T03:52:14;16.80;99.90
18335;DHT22;9293;49.524;10.964;2022-08-21T03:54:45;16.80;99.90
18335;DHT22;9293;49.524;10.964;2022-08-21T03:57:13;16.80;99.90
18335;DHT22;9293;49.524;10.964;2022-08-21T03:59:42;16.90;99.90
18335;DHT22;9293;49.524;10.964;2022-08-21T04:02:12;16.80;99.90
18335;DHT22;9293;49.524;10.964;2022-08-21T04:04:41;16.70;99.90
18335;DHT22;9293;49.524;10.964;2022-08-21T04:07:09;16.70;99.90
18335;DHT22;9293;49.524;10.964;2022-08-21T04:09:37;16.70;99.90
18335;DHT22;9293;49.524;10.964;2022-08-21T04:12:06;16.80;99.90
18335;DHT22;9293;49.524;10.964;2022-08-21T04:14:35;16.80;99.90
18335;DHT22;9293;49.524;10.964;2022-08-21T04:17:03;16.70;99.90
18335;DHT22;9293;49.524;10.964;2022-08-21T04:19:31;16.70;99.90
18335;DHT22;9293;49.524;10.964;2022-08-21T04:21:59;16.70;99.90
18335;DHT22;9293;49.524;10.964;2022-08-21T04:24:28;16.70;99.90
18335;DHT22;9293;49.524;10.964;2022-08-21T04:26:56;16.80;99.90
18335;DHT22;9293;49.524;10.964;2022-08-21T04:29:24;16.70;99.90
18335;DHT22;9293;49.524;10.964;2022-08-21T04:31:52;16.80;99.90
18335;DHT22;9293;49.524;10.964;2022-08-21T04:34:20;16.80;99.90
18335;DHT22;9293;49.524;10.964;2022-08-21T04:36:48;16.70;99.90
18335;DHT22;9293;49.524;10.964;2022-08-21T04:39:16;16.70;99.90
18335;DHT22;9293;49.524;10.964;2022-08-21T04:41:44;16.60;99.90
18335;DHT22;9293;49.524;10.964;2022-08-21T04:44:13;16.60;99.90
18335;DHT22;9293;49.524;10.964;2022-08-21T04:46:41;16.50;99.90
18335;DHT22;9293;49.524;10.964;2022-08-21T04:49:09;16.50;99.90
18335;DHT22;9293;49.524;10.964;2022-08-21T04:51:38;16.50;99.90
18335;DHT22;9293;49.524;10.964;2022-08-21T04:54:20;16.40;99.90
18335;DHT22;9293;49.524;10.964;2022-08-21T04:56:56;16.40;99.90
18335;DHT22;9293;49.524;10.964;2022-08-21T04:59:39;16.40;99.90
18335;DHT22;9293;49.524;10.964;2022-08-21T05:02:09;16.30;99.90
18335;DHT22;9293;49.524;10.964;2022-08-21T05:04:43;16.40;99.90
18335;DHT22;9293;49.524;10.964;2022-08-21T05:07:15;16.40;99.90
18335;DHT22;9293;49.524;10.964;2022-08-21T05:10:05;16.30;99.90
18335;DHT22;9293;49.524;10.964;2022-08-21T05:12:48;16.30;99.90
18335;DHT22;9293;49.524;10.964;2022-08-21T05:15:17;16.40;99.90
18335;DHT22;9293;49.524;10.964;2022-08-21T05:17:48;16.50;99.90
18335;DHT22;9293;49.524;10.964;2022-08-21T05:20:27;16.50;99.90
18335;DHT22;9293;49.524;10.964;2022-08-21T05:22:56;16.50;99.90
18335;DHT22;9293;49.524;10.964;2022-08-21T05:25:25;16.50;99.90
18335;DHT22;9293;49.524;10.964;2022-08-21T05:27:55;16.60;99.90
18335;DHT22;9293;49.524;10.964;2022-08-21T05:30:26;16.70;99.90
18335;DHT22;9293;49.524;10.964;2022-08-21T05:32:58;16.70;99.90
18335;DHT22;9293;49.524;10.964;2022-08-21T05:35:28;16.70;99.90
18335;DHT22;9293;49.524;10.964;2022-08-21T05:37:57;16.70;99.90
18335;DHT22;9293;49.524;10.964;2022-08-21T05:40:26;16.80;99.90
18335;DHT22;9293;49.524;10.964;2022-08-21T05:42:55;16.90;99.90
18335;DHT22;9293;49.524;10.964;2022-08-21T05:45:27;16.90;99.90
18335;DHT22;9293;49.524;10.964;2022-08-21T05:50:39;17.00;99.90
18335;DHT22;9293;49.524;10.964;2022-08-21T05:53:09;17.10;99.90
18335;DHT22;9293;49.524;10.964;2022-08-21T05:55:38;17.10;99.90
18335;DHT22;9293;49.524;10.964;2022-08-21T05:58:17;17.20;99.90
18335;DHT22;9293;49.524;10.964;2022-08-21T06:00:47;17.30;99.90
18335;DHT22;9293;49.524;10.964;2022-08-21T06:03:23;17.30;99.90
18335;DHT22;9293;49.524;10.964;2022-08-21T06:05:52;17.20;99.90
18335;DHT22;9293;49.524;10.964;2022-08-21T06:08:21;17.00;99.90
18335;DHT22;9293;49.524;10.964;2022-08-21T06:10:50;17.00;99.90
18335;DHT22;9293;49.524;10.964;2022-08-21T06:13:20;17.00;99.90
18335;DHT22;9293;49.524;10.964;2022-08-21T06:15:49;16.90;99.90
18335;DHT22;9293;49.524;10.964;2022-08-21T06:18:18;17.10;99.90
18335;DHT22;9293;49.524;10.964;2022-08-21T06:20:46;17.10;99.90
18335;DHT22;9293;49.524;10.964;2022-08-21T06:23:14;17.20;99.90
18335;DHT22;9293;49.524;10.964;2022-08-21T06:25:42;17.20;99.90
18335;DHT22;9293;49.524;10.964;2022-08-21T06:28:10;17.30;99.90
18335;DHT22;9293;49.524;10.964;2022-08-21T06:30:39;17.30;99.90
18335;DHT22;9293;49.524;10.964;2022-08-21T06:33:07;17.40;99.90
18335;DHT22;9293;49.524;10.964;2022-08-21T06:35:37;17.50;99.90
18335;DHT22;9293;49.524;10.964;2022-08-21T06:38:08;17.50;99.90
18335;DHT22;9293;49.524;10.964;2022-08-21T06:40:36;17.40;99.90
18335;DHT22;9293;49.524;10.964;2022-08-21T06:43:15;17.30;99.90
18335;DHT22;9293;49.524;10.964;2022-08-21T06:45:45;17.30;99.90
18335;DHT22;9293;49.524;10.964;2022-08-21T06:48:13;17.30;99.90
18335;DHT22;9293;49.524;10.964;2022-08-21T06:50:46;17.40;99.90
18335;DHT22;9293;49.524;10.964;2022-08-21T06:53:16;17.50;99.90
18335;DHT22;9293;49.524;10.964;2022-08-21T06:55:45;17.60;99.90
18335;DHT22;9293;49.524;10.964;2022-08-21T06:58:14;17.60;99.90
18335;DHT22;9293;49.524;10.964;2022-08-21T07:00:45;17.60;99.90
18335;DHT22;9293;49.524;10.964;2022-08-21T07:05:49;17.70;99.90
18335;DHT22;9293;49.524;10.964;2022-08-21T07:08:18;17.60;99.90
18335;DHT22;9293;49.524;10.964;2022-08-21T07:10:47;17.70;99.90
18335;DHT22;9293;49.524;10.964;2022-08-21T07:13:16;17.70;99.90
18335;DHT22;9293;49.524;10.964;2022-08-21T07:15:44;17.80;99.90
18335;DHT22;9293;49.524;10.964;2022-08-21T07:18:13;17.80;99.90
18335;DHT22;9293;49.524;10.964;2022-08-21T07:20:42;17.80;99.90
18335;DHT22;9293;49.524;10.964;2022-08-21T07:23:28;17.90;99.90
18335;DHT22;9293;49.524;10.964;2022-08-21T07:25:56;17.70;99.90
18335;DHT22;9293;49.524;10.964;2022-08-21T07:28:25;17.60;99.90
18335;DHT22;9293;49.524;10.964;2022-08-21T07:30:59;17.60;99.90
18335;DHT22;9293;49.524;10.964;2022-08-21T07:33:33;17.70;99.90
18335;DHT22;9293;49.524;10.964;2022-08-21T07:36:02;17.80;99.90
18335;DHT22;9293;49.524;10.964;2022-08-21T07:38:31;18.00;99.90
18335;DHT22;9293;49.524;10.964;2022-08-21T07:41:00;18.10;99.90
18335;DHT22;9293;49.524;10.964;2022-08-21T07:43:29;18.00;99.90
18335;DHT22;9293;49.524;10.964;2022-08-21T07:45:57;18.00;99.90
18335;DHT22;9293;49.524;10.964;2022-08-21T07:48:25;18.10;99.90
18335;DHT22;9293;49.524;10.964;2022-08-21T07:50:53;18.10;99.90
18335;DHT22;9293;49.524;10.964;2022-08-21T07:53:22;18.00;99.90
18335;DHT22;9293;49.524;10.964;2022-08-21T07:55:50;18.00;99.90
18335;DHT22;9293;49.524;10.964;2022-08-21T07:58:18;18.00;99.90
18335;DHT22;9293;49.524;10.964;2022-08-21T08:00:46;18.00;99.90
18335;DHT22;9293;49.524;10.964;2022-08-21T08:03:14;18.10;99.90
18335;DHT22;9293;49.524;10.964;2022-08-21T08:05:55;18.30;99.90
18335;DHT22;9293;49.524;10.964;2022-08-21T08:08:24;18.50;99.90
18335;DHT22;9293;49.524;10.964;2022-08-21T08:10:53;18.40;99.90
18335;DHT22;9293;49.524;10.964;2022-08-21T08:13:21;18.30;99.90
18335;DHT22;9293;49.524;10.964;2022-08-21T08:15:50;18.40;99.90
18335;DHT22;9293;49.524;10.964;2022-08-21T08:18:18;18.60;99.90
18335;DHT22;9293;49.524;10.964;2022-08-21T08:20:46;18.70;99.90
18335;DHT22;9293;49.524;10.964;2022-08-21T08:23:15;18.70;99.90
18335;DHT22;9293;49.524;10.964;2022-08-21T08:25:44;18.80;99.90
18335;DHT22;9293;49.524;10.964;2022-08-21T08:28:12;18.90;99.90
18335;DHT22;9293;49.524;10.964;2022-08-21T08:30:45;18.90;99.90
18335;DHT22;9293;49.524;10.964;2022-08-21T08:33:14;18.90;99.90
18335;DHT22;9293;49.524;10.964;2022-08-21T08:35:46;18.80;99.90
18335;DHT22;9293;49.524;10.964;2022-08-21T08:38:18;19.00;99.90
18335;DHT22;9293;49.524;10.964;2022-08-21T08:41:16;19.10;99.90
18335;DHT22;9293;49.524;10.964;2022-08-21T08:43:53;19.00;99.90
18335;DHT22;9293;49.524;10.964;2022-08-21T08:46:40;19.20;99.90
18335;DHT22;9293;49.524;10.964;2022-08-21T08:49:27;19.40;99.90
18335;DHT22;9293;49.524;10.964;2022-08-21T08:52:04;19.50;99.90
18335;DHT22;9293;49.524;10.964;2022-08-21T08:54:55;19.60;99.90
18335;DHT22;9293;49.524;10.964;2022-08-21T08:57:27;19.80;99.90
18335;DHT22;9293;49.524;10.964;2022-08-21T08:59:59;20.00;99.90
18335;DHT22;9293;49.524;10.964;2022-08-21T09:02:28;20.00;99.90
18335;DHT22;9293;49.524;10.964;2022-08-21T09:04:56;20.00;99.90
18335;DHT22;9293;49.524;10.964;2022-08-21T09:07:34;20.00;99.90
18335;DHT22;9293;49.524;10.964;2022-08-21T09:10:29;20.20;99.90
18335;DHT22;9293;49.524;10.964;2022-08-21T09:16:47;20.20;99.90
18335;DHT22;9293;49.524;10.964;2022-08-21T09:22:13;20.40;99.90
18335;DHT22;9293;49.524;10.964;2022-08-21T09:25:10;20.40;99.90
18335;DHT22;9293;49.524;10.964;2022-08-21T09:27:39;20.50;99.90
18335;DHT22;9293;49.524;10.964;2022-08-21T09:30:08;20.50;99.90
18335;DHT22;9293;49.524;10.964;2022-08-21T09:32:38;20.40;99.90
18335;DHT22;9293;49.524;10.964;2022-08-21T09:35:14;20.20;99.90
18335;DHT22;9293;49.524;10.964;2022-08-21T09:38:03;20.30;99.90
18335;DHT22;9293;49.524;10.964;2022-08-21T09:40:43;20.60;99.90
18335;DHT22;9293;49.524;10.964;2022-08-21T09:45:44;20.70;99.90
18335;DHT22;9293;49.524;10.964;2022-08-21T09:48:23;20.90;99.90
18335;DHT22;9293;49.524;10.964;2022-08-21T09:50:53;21.20;99.90
18335;DHT22;9293;49.524;10.964;2022-08-21T09:53:33;21.30;99.90
18335;DHT22;9293;49.524;10.964;2022-08-21T09:56:04;21.30;99.90
18335;DHT22;9293;49.524;10.964;2022-08-21T09:58:54;21.50;99.90
18335;DHT22;9293;49.524;10.964;2022-08-21T10:01:24;21.90;99.90
18335;DHT22;9293;49.524;10.964;2022-08-21T10:04:08;22.00;99.90
18335;DHT22;9293;49.524;10.964;2022-08-21T10:06:39;22.00;99.90
18335;DHT22;9293;49.524;10.964;2022-08-21T10:09:11;22.60;99.90
18335;DHT22;9293;49.524;10.964;2022-08-21T10:11:59;23.10;99.90
18335;DHT22;9293;49.524;10.964;2022-08-21T10:14:58;23.40;99.90
18335;DHT22;9293;49.524;10.964;2022-08-21T10:18:04;23.70;99.90
18335;DHT22;9293;49.524;10.964;2022-08-21T10:21:31;23.90;99.90
18335;DHT22;9293;49.524;10.964;2022-08-21T10:27:20;24.80;99.90
18335;DHT22;9293;49.524;10.964;2022-08-21T10:30:36;24.90;99.90
18335;DHT22;9293;49.524;10.964;2022-08-21T10:33:20;24.50;99.90
18335;DHT22;9293;49.524;10.964;2022-08-21T10:38:56;23.80;99.90
18335;DHT22;9293;49.524;10.964;2022-08-21T10:42:25;23.90;99.90
18335;DHT22;9293;49.524;10.964;2022-08-21T10:45:11;24.30;99.90
18335;DHT22;9293;49.524;10.964;2022-08-21T10:47:52;24.60;99.90
18335;DHT22;9293;49.524;10.964;2022-08-21T10:56:10;25.30;99.90
18335;DHT22;9293;49.524;10.964;2022-08-21T11:01:44;25.50;99.90
18335;DHT22;9293;49.524;10.964;2022-08-21T11:04:31;25.60;99.90
18335;DHT22;9293;49.524;10.964;2022-08-21T11:10:10;25.50;99.90
18335;DHT22;9293;49.524;10.964;2022-08-21T11:12:47;25.60;99.90
18335;DHT22;9293;49.524;10.964;2022-08-21T11:15:37;25.50;99.90
18335;DHT22;9293;49.524;10.964;2022-08-21T11:19:02;25.70;99.90
18335;DHT22;9293;49.524;10.964;2022-08-21T11:21:50;26.00;99.90
18335;DHT22;9293;49.524;10.964;2022-08-21T11:27:05;26.00;99.90
18335;DHT22;9293;49.524;10.964;2022-08-21T11:29:37;26.30;99.90
18335;DHT22;9293;49.524;10.964;2022-08-21T11:32:25;26.30;99.90
18335;DHT22;9293;49.524;10.964;2022-08-21T11:35:10;25.70;99.90
18335;DHT22;9293;49.524;10.964;2022-08-21T11:43:53;25.70;99.90
18335;DHT22;9293;49.524;10.964;2022-08-21T11:49:01;25.80;99.90
18335;DHT22;9293;49.524;10.964;2022-08-21T11:51:33;26.10;99.90
18335;DHT22;9293;49.524;10.964;2022-08-21T11:57:01;26.40;99.90
18335;DHT22;9293;49.524;10.964;2022-08-21T12:00:07;26.50;99.90
18335;DHT22;9293;49.524;10.964;2022-08-21T12:02:31;26.90;99.90
18335;DHT22;9293;49.524;10.964;2022-08-21T12:05:08;27.30;99.90
18335;DHT22;9293;49.524;10.964;2022-08-21T12:07:40;27.60;99.90
18335;DHT22;9293;49.524;10.964;2022-08-21T12:10:12;27.80;99.90
18335;DHT22;9293;49.524;10.964;2022-08-21T12:12:44;27.90;99.90
18335;DHT22;9293;49.524;10.964;2022-08-21T12:17:57;27.40;99.90
18335;DHT22;9293;49.524;10.964;2022-08-21T12:21:01;27.40;99.90
18335;DHT22;9293;49.524;10.964;2022-08-21T12:23:46;27.60;99.90
18335;DHT22;9293;49.524;10.964;2022-08-21T12:26:29;28.00;99.90
18335;DHT22;9293;49.524;10.964;2022-08-21T12:29:15;28.30;99.90
18335;DHT22;9293;49.524;10.964;2022-08-21T12:31:54;28.50;99.90
18335;DHT22;9293;49.524;10.964;2022-08-21T12:34:27;28.30;99.90
18335;DHT22;9293;49.524;10.964;2022-08-21T12:37:11;28.20;99.90
18335;DHT22;9293;49.524;10.964;2022-08-21T12:39:51;28.30;99.90
18335;DHT22;9293;49.524;10.964;2022-08-21T12:45:00;28.40;99.90
18335;DHT22;9293;49.524;10.964;2022-08-21T12:47:34;28.40;99.90
18335;DHT22;9293;49.524;10.964;2022-08-21T12:50:11;28.10;99.90
18335;DHT22;9293;49.524;10.964;2022-08-21T12:52:50;27.70;99.90
18335;DHT22;9293;49.524;10.964;2022-08-21T12:55:29;27.00;99.90
18335;DHT22;9293;49.524;10.964;2022-08-21T12:57:57;26.50;99.90
18335;DHT22;9293;49.524;10.964;2022-08-21T13:00:28;26.30;99.90
18335;DHT22;9293;49.524;10.964;2022-08-21T13:02:57;26.20;99.90
18335;DHT22;9293;49.524;10.964;2022-08-21T13:05:31;26.00;99.90
18335;DHT22;9293;49.524;10.964;2022-08-21T13:08:04;26.10;99.90
18335;DHT22;9293;49.524;10.964;2022-08-21T13:10:34;26.10;99.90
18335;DHT22;9293;49.524;10.964;2022-08-21T13:13:05;26.40;99.90
18335;DHT22;9293;49.524;10.964;2022-08-21T13:15:40;26.70;99.90
18335;DHT22;9293;49.524;10.964;2022-08-21T13:18:27;27.00;99.90
18335;DHT22;9293;49.524;10.964;2022-08-21T13:21:06;27.30;99.90
18335;DHT22;9293;49.524;10.964;2022-08-21T13:23:34;27.40;99.90
18335;DHT22;9293;49.524;10.964;2022-08-21T13:26:14;27.40;99.90
18335;DHT22;9293;49.524;10.964;2022-08-21T13:28:49;27.40;99.90
18335;DHT22;9293;49.524;10.964;2022-08-21T13:31:27;27.20;99.90
18335;DHT22;9293;49.524;10.964;2022-08-21T13:33:57;27.20;99.90
18335;DHT22;9293;49.524;10.964;2022-08-21T13:36:32;27.20;99.90
18335;DHT22;9293;49.524;10.964;2022-08-21T13:39:05;27.40;99.90
18335;DHT22;9293;49.524;10.964;2022-08-21T13:41:37;27.70;99.90
18335;DHT22;9293;49.524;10.964;2022-08-21T13:44:16;27.90;99.90
18335;DHT22;9293;49.524;10.964;2022-08-21T13:46:47;28.20;99.90
18335;DHT22;9293;49.524;10.964;2022-08-21T13:49:20;28.30;99.90
18335;DHT22;9293;49.524;10.964;2022-08-21T13:51:50;28.40;99.90
18335;DHT22;9293;49.524;10.964;2022-08-21T13:54:37;28.40;99.90
18335;DHT22;9293;49.524;10.964;2022-08-21T13:57:17;28.60;99.90
18335;DHT22;9293;49.524;10.964;2022-08-21T13:59:46;28.80;99.90
18335;DHT22;9293;49.524;10.964;2022-08-21T14:02:20;28.70;99.90
18335;DHT22;9293;49.524;10.964;2022-08-21T14:04:51;28.70;99.90
18335;DHT22;9293;49.524;10.964;2022-08-21T14:07:28;28.60;99.90
18335;DHT22;9293;49.524;10.964;2022-08-21T14:10:05;28.50;99.90
18335;DHT22;9293;49.524;10.964;2022-08-21T14:12:42;28.70;99.90
18335;DHT22;9293;49.524;10.964;2022-08-21T14:15:29;28.90;99.90
18335;DHT22;9293;49.524;10.964;2022-08-21T14:18:13;29.10;99.90
18335;DHT22;9293;49.524;10.964;2022-08-21T14:20:42;29.10;99.90
18335;DHT22;9293;49.524;10.964;2022-08-21T14:23:11;29.10;99.60
18335;DHT22;9293;49.524;10.964;2022-08-21T14:25:43;29.00;99.30
18335;DHT22;9293;49.524;10.964;2022-08-21T14:28:33;28.60;99.90
18335;DHT22;9293;49.524;10.964;2022-08-21T14:31:20;28.50;99.70
18335;DHT22;9293;49.524;10.964;2022-08-21T14:33:48;28.20;99.80
18335;DHT22;9293;49.524;10.964;2022-08-21T14:36:16;28.30;99.90
18335;DHT22;9293;49.524;10.964;2022-08-21T14:38:47;28.60;99.90
18335;DHT22;9293;49.524;10.964;2022-08-21T14:41:22;28.90;99.90
18335;DHT22;9293;49.524;10.964;2022-08-21T14:43:52;29.10;99.30
18335;DHT22;9293;49.524;10.964;2022-08-21T14:46:34;29.30;98.70
18335;DHT22;9293;49.524;10.964;2022-08-21T14:49:23;29.30;99.10
18335;DHT22;9293;49.524;10.964;2022-08-21T14:51:52;29.40;98.40
18335;DHT22;9293;49.524;10.964;2022-08-21T14:54:29;29.40;99.10
18335;DHT22;9293;49.524;10.964;2022-08-21T14:57:06;29.40;97.90
18335;DHT22;9293;49.524;10.964;2022-08-21T14:59:36;29.40;98.30
18335;DHT22;9293;49.524;10.964;2022-08-21T15:02:05;29.50;98.60
18335;DHT22;9293;49.524;10.964;2022-08-21T15:04:34;29.70;97.60
18335;DHT22;9293;49.524;10.964;2022-08-21T15:07:03;29.70;97.40
18335;DHT22;9293;49.524;10.964;2022-08-21T15:09:31;29.70;96.30
18335;DHT22;9293;49.524;10.964;2022-08-21T15:12:00;29.50;97.10
18335;DHT22;9293;49.524;10.964;2022-08-21T15:14:34;29.70;96.60
18335;DHT22;9293;49.524;10.964;2022-08-21T15:17:04;29.70;96.30
18335;DHT22;9293;49.524;10.964;2022-08-21T15:19:33;29.70;95.50
18335;DHT22;9293;49.524;10.964;2022-08-21T15:22:01;29.80;94.40
18335;DHT22;9293;49.524;10.964;2022-08-21T15:24:30;29.30;95.90
18335;DHT22;9293;49.524;10.964;2022-08-21T15:27:00;29.20;95.90
18335;DHT22;9293;49.524;10.964;2022-08-21T15:29:30;29.20;94.40
18335;DHT22;9293;49.524;10.964;2022-08-21T15:32:15;29.10;94.30
18335;DHT22;9293;49.524;10.964;2022-08-21T15:34:44;29.10;94.90
18335;DHT22;9293;49.524;10.964;2022-08-21T15:37:12;29.20;94.80
18335;DHT22;9293;49.524;10.964;2022-08-21T15:39:52;29.20;94.60
18335;DHT22;9293;49.524;10.964;2022-08-21T15:42:25;29.10;94.50
18335;DHT22;9293;49.524;10.964;2022-08-21T15:44:54;28.80;92.70
18335;DHT22;9293;49.524;10.964;2022-08-21T15:47:35;28.60;94.10
18335;DHT22;9293;49.524;10.964;2022-08-21T15:50:13;28.50;94.30
18335;DHT22;9293;49.524;10.964;2022-08-21T15:52:44;28.30;93.60
18335;DHT22;9293;49.524;10.964;2022-08-21T15:55:18;28.10;93.40
18335;DHT22;9293;49.524;10.964;2022-08-21T15:57:49;27.70;95.20
18335;DHT22;9293;49.524;10.964;2022-08-21T16:00:25;27.70;95.20
18335;DHT22;9293;49.524;10.964;2022-08-21T16:02:57;27.60;94.10
18335;DHT22;9293;49.524;10.964;2022-08-21T16:05:29;27.60;94.40
18335;DHT22;9293;49.524;10.964;2022-08-21T16:08:06;27.50;94.30
18335;DHT22;9293;49.524;10.964;2022-08-21T16:10:35;27.40;94.60
18335;DHT22;9293;49.524;10.964;2022-08-21T16:13:24;27.30;95.10
18335;DHT22;9293;49.524;10.964;2022-08-21T16:16:20;27.20;93.80
18335;DHT22;9293;49.524;10.964;2022-08-21T16:18:51;27.00;95.00
18335;DHT22;9293;49.524;10.964;2022-08-21T16:21:21;26.90;94.60
18335;DHT22;9293;49.524;10.964;2022-08-21T16:24:05;26.90;95.50
18335;DHT22;9293;49.524;10.964;2022-08-21T16:26:37;26.90;95.20
18335;DHT22;9293;49.524;10.964;2022-08-21T16:29:07;26.90;95.20
18335;DHT22;9293;49.524;10.964;2022-08-21T16:31:36;26.80;94.90
18335;DHT22;9293;49.524;10.964;2022-08-21T16:34:22;26.80;95.20
18335;DHT22;9293;49.524;10.964;2022-08-21T16:37:29;26.70;95.20
18335;DHT22;9293;49.524;10.964;2022-08-21T16:39:59;26.60;93.90
18335;DHT22;9293;49.524;10.964;2022-08-21T16:42:28;26.50;94.30
18335;DHT22;9293;49.524;10.964;2022-08-21T16:44:57;26.40;94.20
18335;DHT22;9293;49.524;10.964;2022-08-21T16:47:36;26.40;94.20
18335;DHT22;9293;49.524;10.964;2022-08-21T16:50:06;26.40;94.90
18335;DHT22;9293;49.524;10.964;2022-08-21T16:52:40;26.40;95.10
18335;DHT22;9293;49.524;10.964;2022-08-21T16:55:08;26.40;94.70
18335;DHT22;9293;49.524;10.964;2022-08-21T16:57:37;26.30;95.40
18335;DHT22;9293;49.524;10.964;2022-08-21T17:00:07;26.30;95.10
18335;DHT22;9293;49.524;10.964;2022-08-21T17:02:48;26.30;95.50